createdAt,value
2019-06-01T00:00:21.209Z,17.77
2019-06-01T00:02:56.469Z,18.50
2019-06-01T00:05:23.569Z,17.70
2019-06-01T00:07:53.107Z,17.47
2019-06-01T00:10:22.696Z,16.50
2019-06-01T00:12:52.269Z,16.77
2019-06-01T00:15:21.888Z,18.27
2019-06-01T00:17:51.763Z,18.77
2019-06-01T00:20:21.271Z,18.80
2019-06-01T00:22:51.782Z,18.43
2019-06-01T00:25:21.446Z,18.00
2019-06-01T00:27:52.813Z,19.30
2019-06-01T00:30:26.892Z,17.70
2019-06-01T00:32:55.235Z,17.60
2019-06-01T00:35:24.929Z,17.40
2019-06-01T00:37:54.705Z,17.50
2019-06-01T00:40:24.355Z,17.30
2019-06-01T00:42:54.093Z,16.63
2019-06-01T00:45:23.741Z,16.53
2019-06-01T00:47:53.543Z,16.60
2019-06-01T00:50:23.191Z,16.37
2019-06-01T00:52:53.455Z,16.13
2019-06-01T00:55:46.001Z,16.27
2019-06-01T00:58:20.894Z,17.47
2019-06-01T01:00:51.991Z,16.33
2019-06-01T01:03:21.760Z,16.47
2019-06-01T01:05:51.260Z,14.70
2019-06-01T01:08:20.763Z,15.47
2019-06-01T01:10:51.070Z,15.07
2019-06-01T01:13:22.330Z,14.03
2019-06-01T01:15:51.861Z,15.33
2019-06-01T01:18:21.366Z,14.60
2019-06-01T01:20:51.957Z,15.13
2019-06-01T01:23:21.647Z,14.63
2019-06-01T01:25:51.142Z,15.63
2019-06-01T01:28:23.846Z,15.50
2019-06-01T01:31:03.096Z,15.47
2019-06-01T01:33:23.088Z,14.77
2019-06-01T01:35:54.100Z,15.87
2019-06-01T01:38:24.979Z,14.87
2019-06-01T01:40:54.583Z,15.10
2019-06-01T01:43:24.166Z,15.47
2019-06-01T01:45:54.830Z,15.37
2019-06-01T01:48:24.683Z,15.00
2019-06-01T01:50:54.373Z,14.63
2019-06-01T01:53:23.913Z,15.13
2019-06-01T01:55:53.552Z,14.97
2019-06-01T01:58:23.054Z,14.00
2019-06-01T02:00:54.535Z,16.50
2019-06-01T02:03:23.848Z,15.47
2019-06-01T02:05:53.380Z,14.33
2019-06-01T02:08:24.664Z,14.67
2019-06-01T02:10:55.405Z,13.23
2019-06-01T02:13:25.225Z,14.00
2019-06-01T02:15:56.198Z,13.67
2019-06-01T02:18:25.768Z,14.43
2019-06-01T02:20:56.290Z,14.57
2019-06-01T02:23:25.694Z,13.83
2019-06-01T02:25:55.200Z,14.47
2019-06-01T02:28:24.816Z,14.70
2019-06-01T02:30:55.981Z,14.13
2019-06-01T02:33:25.702Z,13.90
2019-06-01T02:35:56.290Z,14.77
2019-06-01T02:38:28.768Z,14.10
2019-06-01T02:41:01.182Z,13.00
2019-06-01T02:43:31.404Z,15.07
2019-06-01T02:46:02.739Z,13.83
2019-06-01T02:48:32.753Z,13.27
2019-06-01T02:51:03.970Z,14.60
2019-06-01T02:53:33.513Z,13.97
2019-06-01T02:56:04.282Z,13.53
2019-06-01T02:58:33.944Z,13.67
2019-06-01T03:01:09.047Z,13.10
2019-06-01T03:03:39.815Z,12.97
2019-06-01T03:06:12.473Z,13.97
2019-06-01T03:08:43.580Z,12.83
2019-06-01T03:11:15.513Z,12.90
2019-06-01T03:13:48.003Z,14.10
2019-06-01T03:16:20.528Z,13.17
2019-06-01T03:18:52.669Z,14.00
2019-06-01T03:21:24.491Z,14.27
2019-06-01T03:23:56.991Z,15.63
2019-06-01T03:26:28.961Z,13.90
2019-06-01T03:29:03.253Z,13.20
2019-06-01T03:31:32.697Z,15.20
2019-06-01T03:34:04.415Z,14.90
2019-06-01T03:36:34.949Z,13.33
2019-06-01T03:39:08.887Z,13.40
2019-06-01T03:41:38.662Z,14.73
2019-06-01T03:44:09.737Z,12.63
2019-06-01T03:46:39.360Z,14.63
2019-06-01T03:49:09.771Z,13.97
2019-06-01T03:51:39.598Z,12.57
2019-06-01T03:54:10.165Z,13.70
2019-06-01T03:56:39.868Z,13.57
2019-06-01T03:59:09.519Z,13.57
2019-06-01T04:01:39.109Z,14.17
2019-06-01T04:04:09.331Z,12.17
2019-06-01T04:06:40.244Z,12.10
2019-06-01T04:09:10.084Z,13.30
2019-06-01T04:11:39.484Z,13.53
2019-06-01T04:14:09.843Z,13.70
2019-06-01T04:16:41.284Z,13.63
2019-06-01T04:19:12.193Z,13.03
2019-06-01T04:21:42.938Z,11.70
2019-06-01T04:24:14.123Z,12.90
2019-06-01T04:26:43.802Z,14.37
2019-06-01T04:29:13.439Z,11.07
2019-06-01T04:31:42.967Z,12.07
2019-06-01T04:34:13.133Z,12.97
2019-06-01T04:36:42.575Z,13.60
2019-06-01T04:39:12.457Z,13.40
2019-06-01T04:41:43.099Z,13.87
2019-06-01T04:44:14.200Z,12.37
2019-06-01T04:52:32.936Z,11.77
2019-06-01T05:00:27.662Z,13.53
2019-06-01T05:01:21.307Z,13.23
2019-06-01T05:03:51.109Z,14.70
2019-06-01T05:12:11.449Z,14.80
2019-06-01T05:16:40.950Z,11.97
2019-06-01T05:22:45.659Z,13.03
2019-06-01T05:24:07.208Z,11.60
2019-06-01T05:26:38.687Z,12.63
2019-06-01T05:29:13.793Z,14.30
2019-06-01T05:31:45.171Z,14.40
2019-06-01T05:34:15.927Z,12.60
2019-06-01T05:36:46.019Z,13.97
2019-06-01T05:39:18.570Z,11.93
2019-06-01T05:41:59.245Z,13.27
2019-06-01T05:44:30.625Z,14.97
2019-06-01T05:47:00.543Z,12.93
2019-06-01T05:49:31.741Z,12.77
2019-06-01T05:52:03.871Z,12.83
2019-06-01T05:54:33.604Z,13.77
2019-06-01T05:57:03.283Z,13.03
2019-06-01T05:59:32.941Z,12.13
2019-06-01T06:02:03.938Z,12.43
2019-06-01T06:04:33.795Z,13.40
2019-06-01T06:07:03.637Z,12.67
2019-06-01T06:09:34.836Z,12.47
2019-06-01T06:12:07.892Z,14.33
2019-06-01T06:14:37.562Z,11.70
2019-06-01T06:17:12.368Z,12.87
2019-06-01T06:19:40.341Z,10.80
2019-06-01T06:22:09.849Z,11.40
2019-06-01T06:24:39.354Z,11.27
2019-06-01T06:27:09.041Z,10.63
2019-06-01T06:29:38.674Z,10.63
2019-06-01T06:32:09.344Z,10.50
2019-06-01T06:34:40.867Z,12.73
2019-06-01T06:37:10.378Z,10.73
2019-06-01T06:39:39.945Z,10.57
2019-06-01T06:42:09.456Z,11.23
2019-06-01T06:44:38.957Z,10.40
2019-06-01T06:47:08.449Z,11.17
2019-06-01T06:49:37.878Z,10.67
2019-06-01T06:52:07.473Z,11.87
2019-06-01T06:54:37.089Z,13.00
2019-06-01T06:57:06.520Z,10.43
2019-06-01T06:59:36.094Z,11.03
2019-06-01T07:02:05.697Z,11.23
2019-06-01T07:04:35.199Z,10.63
2019-06-01T07:07:04.931Z,11.53
2019-06-01T07:09:35.896Z,10.90
2019-06-01T07:12:05.486Z,12.10
2019-06-01T07:14:36.342Z,11.33
2019-06-01T07:17:06.149Z,10.73
2019-06-01T07:19:35.771Z,9.67
2019-06-01T07:22:05.428Z,12.43
2019-06-01T07:24:34.850Z,12.73
2019-06-01T07:27:04.582Z,10.63
2019-06-01T07:29:34.036Z,11.63
2019-06-01T07:32:03.630Z,11.93
2019-06-01T07:34:41.943Z,11.23
2019-06-01T07:37:04.909Z,12.57
2019-06-01T07:39:34.540Z,12.13
2019-06-01T07:42:04.307Z,10.73
2019-06-01T07:44:33.836Z,10.60
2019-06-01T07:47:03.690Z,10.90
2019-06-01T07:49:35.927Z,10.40
2019-06-01T07:52:12.699Z,9.67
2019-06-01T07:54:37.023Z,9.90
2019-06-01T07:57:11.418Z,9.90
2019-06-01T07:59:41.016Z,10.63
2019-06-01T08:02:10.668Z,11.17
2019-06-01T08:04:52.573Z,12.27
2019-06-01T08:07:11.541Z,10.13
2019-06-01T08:09:42.796Z,10.70
2019-06-01T08:12:12.516Z,12.20
2019-06-01T08:14:42.175Z,13.50
2019-06-01T08:17:11.928Z,12.50
2019-06-01T08:19:41.501Z,10.70
2019-06-01T08:22:14.837Z,12.43
2019-06-01T08:24:44.865Z,10.90
2019-06-01T08:27:14.449Z,9.83
2019-06-01T08:29:44.160Z,10.40
2019-06-01T08:32:16.910Z,9.57
2019-06-01T08:34:46.520Z,10.80
2019-06-01T08:37:20.467Z,10.43
2019-06-01T08:39:49.980Z,10.47
2019-06-01T08:42:19.557Z,11.37
2019-06-01T08:44:49.045Z,11.13
2019-06-01T08:47:18.764Z,10.60
2019-06-01T08:49:48.295Z,10.10
2019-06-01T08:52:17.728Z,9.93
2019-06-01T08:54:47.577Z,11.80
2019-06-01T08:57:17.129Z,10.17
2019-06-01T08:59:46.703Z,10.90
2019-06-01T09:02:16.232Z,10.20
2019-06-01T09:04:45.695Z,12.07
2019-06-01T09:07:15.663Z,11.23
2019-06-01T09:09:45.337Z,10.00
2019-06-01T09:12:14.893Z,11.37
2019-06-01T09:14:44.383Z,10.37
2019-06-01T09:17:18.343Z,10.63
2019-06-01T09:19:45.401Z,11.90
2019-06-01T09:22:16.342Z,11.23
2019-06-01T09:24:45.882Z,12.83
2019-06-01T09:27:20.016Z,10.33
2019-06-01T09:29:55.445Z,10.37
2019-06-01T09:32:26.122Z,12.93
2019-06-01T09:34:55.602Z,11.83
2019-06-01T09:37:26.437Z,10.07
2019-06-01T09:39:56.076Z,12.33
2019-06-01T09:42:26.712Z,12.03
2019-06-01T09:44:56.538Z,12.27
2019-06-01T09:47:27.105Z,10.17
2019-06-01T09:49:56.806Z,9.87
2019-06-01T09:52:27.399Z,10.70
2019-06-01T09:54:57.421Z,9.73
2019-06-01T09:57:27.674Z,9.90
2019-06-01T09:59:57.644Z,10.83
2019-06-01T10:02:28.065Z,11.77
2019-06-01T10:04:59.474Z,10.77
2019-06-01T10:07:30.964Z,10.73
2019-06-01T10:10:00.614Z,10.30
2019-06-01T10:12:38.206Z,10.30
2019-06-01T10:15:15.458Z,9.87
2019-06-01T10:17:53.047Z,11.97
2019-06-01T10:20:25.656Z,11.40
2019-06-01T10:22:59.922Z,9.87
2019-06-01T10:25:34.932Z,9.13
2019-06-01T10:28:04.739Z,9.13
2019-06-01T10:30:35.694Z,9.60
2019-06-01T10:33:05.538Z,10.23
2019-06-01T10:35:35.249Z,10.10
2019-06-01T10:38:09.981Z,10.97
2019-06-01T10:40:39.925Z,10.60
2019-06-01T10:43:09.582Z,11.33
2019-06-01T10:45:39.912Z,12.17
2019-06-01T10:48:12.262Z,8.63
2019-06-01T10:50:42.855Z,8.70
2019-06-01T10:53:16.055Z,8.03
2019-06-01T10:55:50.789Z,8.63
2019-06-01T10:58:20.662Z,8.03
2019-06-01T11:00:51.338Z,8.17
2019-06-01T11:03:21.132Z,10.20
2019-06-01T11:05:50.910Z,9.60
2019-06-01T11:08:25.790Z,8.77
2019-06-01T11:10:57.033Z,7.77
2019-06-01T11:13:26.673Z,7.97
2019-06-01T11:15:56.159Z,8.10
2019-06-01T11:18:26.879Z,8.73
2019-06-01T11:21:03.714Z,7.23
2019-06-01T11:23:33.373Z,9.30
2019-06-01T11:26:02.992Z,9.03
2019-06-01T11:28:33.828Z,9.57
2019-06-01T11:31:03.469Z,9.10
2019-06-01T11:33:38.184Z,9.17
2019-06-01T11:36:08.162Z,8.20
2019-06-01T11:38:44.858Z,9.57
2019-06-01T11:41:36.378Z,11.20
2019-06-01T11:44:15.493Z,8.77
2019-06-01T11:46:45.281Z,8.57
2019-06-01T11:49:14.970Z,7.53
2019-06-01T11:51:45.316Z,6.67
2019-06-01T11:54:19.822Z,8.00
2019-06-01T11:56:46.555Z,8.00
2019-06-01T11:59:21.286Z,7.63
2019-06-01T12:01:56.696Z,7.17
2019-06-01T12:04:28.320Z,6.63
2019-06-01T12:07:15.746Z,7.50
2019-06-01T12:09:29.214Z,8.83
2019-06-01T12:11:58.902Z,7.53
2019-06-01T12:14:28.476Z,6.80
2019-06-01T12:16:58.114Z,7.67
2019-06-01T12:19:27.671Z,7.03
2019-06-01T12:21:57.388Z,7.93
2019-06-01T12:24:26.952Z,6.63
2019-06-01T12:26:56.676Z,7.30
2019-06-01T12:29:26.461Z,6.80
2019-06-01T12:31:55.981Z,7.10
2019-06-01T12:34:25.490Z,7.30
2019-06-01T12:36:54.984Z,6.87
2019-06-01T12:39:24.617Z,7.03
2019-06-01T12:41:54.034Z,7.50
2019-06-01T12:44:23.595Z,6.87
2019-06-01T12:46:53.105Z,7.40
2019-06-01T12:49:22.844Z,6.80
2019-06-01T12:51:53.100Z,8.20
2019-06-01T12:54:22.740Z,7.63
2019-06-01T12:56:53.132Z,7.00
2019-06-01T12:59:22.793Z,7.17
2019-06-01T13:01:52.501Z,8.27
2019-06-01T13:04:22.179Z,8.70
2019-06-01T13:06:53.785Z,8.13
2019-06-01T13:09:23.461Z,6.77
2019-06-01T13:11:53.181Z,7.43
2019-06-01T13:14:22.699Z,8.57
2019-06-01T13:17:06.646Z,8.20
2019-06-01T13:19:31.547Z,7.67
2019-06-01T13:22:01.023Z,8.07
2019-06-01T13:24:30.442Z,9.70
2019-06-01T13:26:59.941Z,9.10
2019-06-01T13:29:31.151Z,9.10
2019-06-01T13:59:57.910Z,10.27
2019-06-01T14:02:29.882Z,8.67
2019-06-01T14:04:59.498Z,10.07
2019-06-01T14:07:29.053Z,10.20
2019-06-01T14:09:58.632Z,8.40
2019-06-01T14:12:28.200Z,8.93
2019-06-01T14:14:57.674Z,9.93
2019-06-01T14:17:27.310Z,9.87
2019-06-01T14:19:56.823Z,10.13
2019-06-01T14:22:26.421Z,10.97
2019-06-01T14:25:11.853Z,9.80
2019-06-01T14:27:28.813Z,9.93
2019-06-01T14:29:58.315Z,10.43
2019-06-01T14:32:27.753Z,10.10
2019-06-01T14:35:02.467Z,10.10
2019-06-01T14:37:32.336Z,11.37
2019-06-01T14:40:07.650Z,10.13
2019-06-01T14:42:37.524Z,9.77
2019-06-01T14:45:09.834Z,11.60
2019-06-01T14:47:39.327Z,11.40
2019-06-01T14:50:09.457Z,11.80
2019-06-01T14:52:39.050Z,14.07
2019-06-01T14:55:08.953Z,11.97
2019-06-01T14:57:43.770Z,11.53
2019-06-01T15:00:15.582Z,11.33
2019-06-01T15:02:45.927Z,13.27
2019-06-01T15:05:20.724Z,11.57
2019-06-01T15:07:54.467Z,11.07
2019-06-01T15:10:27.207Z,12.50
2019-06-01T15:15:53.420Z,11.17
2019-06-01T15:18:24.667Z,11.40
2019-06-01T15:20:55.856Z,10.93
2019-06-01T15:23:25.619Z,10.33
2019-06-01T15:25:56.421Z,11.13
2019-06-01T15:28:26.279Z,10.93
2019-06-01T15:30:57.113Z,10.53
2019-06-01T15:33:26.813Z,11.13
2019-06-01T15:35:57.614Z,11.77
2019-06-01T15:38:27.389Z,12.07
2019-06-01T15:40:57.972Z,11.17
2019-06-01T15:43:27.741Z,12.13
2019-06-01T15:45:57.577Z,12.20
2019-06-01T15:48:27.394Z,11.30
2019-06-01T15:51:02.308Z,10.73
2019-06-01T15:53:28.324Z,12.47
2019-06-01T15:55:59.185Z,12.57
2019-06-01T15:58:28.920Z,12.27
2019-06-01T16:00:59.239Z,11.20
2019-06-01T16:03:33.843Z,12.07
2019-06-01T16:06:01.331Z,11.70
2019-06-01T16:08:34.747Z,11.60
2019-06-01T16:11:06.603Z,11.37
2019-06-01T16:13:36.307Z,11.30
2019-06-01T16:16:06.610Z,10.73
2019-06-01T16:18:36.187Z,10.77
2019-06-01T16:21:05.851Z,11.23
2019-06-01T16:23:49.551Z,11.23
2019-06-01T16:26:15.638Z,11.97
2019-06-01T16:28:37.908Z,10.47
2019-06-01T16:31:07.343Z,9.50
2019-06-01T16:33:36.839Z,11.23
2019-06-01T16:36:06.680Z,11.67
2019-06-01T16:38:36.261Z,11.70
2019-06-01T16:41:05.839Z,12.00
2019-06-01T16:43:35.523Z,13.20
2019-06-01T16:46:05.975Z,12.60
2019-06-01T16:48:35.799Z,12.20
2019-06-01T16:51:05.875Z,10.30
2019-06-01T16:53:35.544Z,11.57
2019-06-01T16:56:06.343Z,11.10
2019-06-01T16:58:36.017Z,12.37
2019-06-01T17:01:06.694Z,12.07
2019-06-01T17:03:36.458Z,12.13
2019-06-01T17:06:06.878Z,12.13
2019-06-01T17:08:36.544Z,12.67
2019-06-01T17:11:06.924Z,12.73
2019-06-01T17:13:36.684Z,12.47
2019-06-01T17:16:07.217Z,13.17
2019-06-01T17:18:50.104Z,12.53
2019-06-01T17:21:52.332Z,12.77
2019-06-01T17:27:29.172Z,13.83
2019-06-01T17:30:00.330Z,15.27
2019-06-01T17:32:30.398Z,15.37
2019-06-01T17:35:00.718Z,14.97
2019-06-01T17:37:30.425Z,14.97
2019-06-01T17:40:00.062Z,14.70
2019-06-01T17:42:29.581Z,16.20
2019-06-01T17:45:00.708Z,13.37
2019-06-01T17:47:31.017Z,13.97
2019-06-01T17:50:02.277Z,13.33
2019-06-01T17:52:33.263Z,13.70
2019-06-01T17:55:03.278Z,12.97
2019-06-01T17:57:35.063Z,12.60
2019-06-01T18:00:07.781Z,12.83
2019-06-01T18:02:40.715Z,12.77
2019-06-01T18:05:10.415Z,13.80
2019-06-01T18:07:40.054Z,13.23
2019-06-01T18:10:10.169Z,14.37
2019-06-01T18:12:40.147Z,14.37
2019-06-01T18:15:10.255Z,14.80
2019-06-01T18:17:40.267Z,13.87
2019-06-01T18:20:11.009Z,14.13
2019-06-01T18:22:41.152Z,14.20
2019-06-01T18:25:19.564Z,15.20
2019-06-01T18:27:49.175Z,15.17
2019-06-01T18:30:20.528Z,14.97
2019-06-01T18:32:50.807Z,14.73
2019-06-01T18:35:20.382Z,14.73
2019-06-01T18:37:50.030Z,15.50
2019-06-01T18:40:23.787Z,14.83
2019-06-01T18:42:59.750Z,16.37
2019-06-01T18:45:29.432Z,15.30
2019-06-01T18:47:59.123Z,16.07
2019-06-01T18:50:32.352Z,15.50
2019-06-01T18:53:02.085Z,14.43
2019-06-01T18:55:34.848Z,14.47
2019-06-01T18:58:03.919Z,14.47
2019-06-01T19:00:38.635Z,16.13
2019-06-01T19:03:07.028Z,15.10
2019-06-01T19:05:37.524Z,13.97
2019-06-01T19:08:07.318Z,12.97
2019-06-01T19:10:38.646Z,12.80
2019-06-01T19:13:09.767Z,13.43
2019-06-01T19:15:45.494Z,12.73
2019-06-01T19:18:16.789Z,13.27
2019-06-01T19:20:46.397Z,13.93
2019-06-01T19:23:20.260Z,12.93
2019-06-01T19:25:50.574Z,13.73
2019-06-01T19:28:20.239Z,14.33
2019-06-01T19:30:49.934Z,12.93
2019-06-01T19:33:19.745Z,14.43
2019-06-01T19:35:52.093Z,13.93
2019-06-01T19:38:22.525Z,14.00
2019-06-01T19:40:52.087Z,14.00
2019-06-01T19:43:22.368Z,15.23
2019-06-01T19:45:51.983Z,13.87
2019-06-01T19:48:24.981Z,13.50
2019-06-01T19:50:57.608Z,14.87
2019-06-01T19:53:28.688Z,13.43
2019-06-01T19:55:59.282Z,13.47
2019-06-01T19:58:29.022Z,14.00
2019-06-01T20:00:58.706Z,13.37
2019-06-01T20:03:28.397Z,14.17
2019-06-01T20:05:58.040Z,14.07
2019-06-01T20:08:27.733Z,13.50
2019-06-01T20:10:57.280Z,13.97
2019-06-01T20:13:26.924Z,13.87
2019-06-01T20:15:56.582Z,14.60
2019-06-01T20:18:27.119Z,14.00
2019-06-01T20:20:56.595Z,14.17
2019-06-01T20:23:26.185Z,13.87
2019-06-01T20:25:55.848Z,13.17
2019-06-01T20:28:26.791Z,14.93
2019-06-01T20:30:56.379Z,14.50
2019-06-01T20:33:25.966Z,14.83
2019-06-01T20:35:55.411Z,14.23
2019-06-01T20:38:24.846Z,14.17
2019-06-01T20:40:54.300Z,14.00
2019-06-01T20:43:24.825Z,15.10
2019-06-01T20:45:56.752Z,13.40
2019-06-01T20:48:25.839Z,14.20
2019-06-01T20:50:55.310Z,14.67
2019-06-01T20:53:24.880Z,13.60
2019-06-01T20:55:54.471Z,14.63
2019-06-01T20:58:24.946Z,13.33
2019-06-01T21:00:54.705Z,13.73
2019-06-01T21:03:24.475Z,13.87
2019-06-01T21:05:54.135Z,14.97
2019-06-01T21:08:24.160Z,14.50
2019-06-01T21:10:54.070Z,14.57
2019-06-01T21:13:24.249Z,13.63
2019-06-01T21:15:54.011Z,14.53
2019-06-01T21:18:25.039Z,14.97
2019-06-01T21:20:55.927Z,15.20
2019-06-01T21:23:25.556Z,15.37
2019-06-01T21:25:56.129Z,14.00
2019-06-01T21:28:26.000Z,15.67
2019-06-01T21:30:55.747Z,15.43
2019-06-01T21:33:28.593Z,14.47
2019-06-01T21:35:56.501Z,15.57
2019-06-01T21:38:26.164Z,14.70
2019-06-01T21:40:55.752Z,14.13
2019-06-01T21:43:35.025Z,14.13
2019-06-01T21:45:57.890Z,14.23
2019-06-01T21:48:27.511Z,15.37
2019-06-01T21:50:57.022Z,15.27
2019-06-01T21:53:26.722Z,18.63
2019-06-01T21:55:56.362Z,18.13
2019-06-01T21:58:27.007Z,14.47
2019-06-01T22:00:56.609Z,15.33
2019-06-01T22:03:27.345Z,15.17
2019-06-01T22:05:57.284Z,16.20
2019-06-01T22:08:27.529Z,17.20
2019-06-01T22:10:57.577Z,19.27
2019-06-01T22:13:28.608Z,17.30
2019-06-01T22:15:59.714Z,15.73
2019-06-01T22:18:29.257Z,16.17
2019-06-01T22:20:58.686Z,15.70
2019-06-01T22:23:28.295Z,16.17
2019-06-01T22:25:57.775Z,17.53
2019-06-01T22:28:28.471Z,17.77
2019-06-01T22:30:58.396Z,16.17
2019-06-01T22:33:28.752Z,17.63
2019-06-01T22:35:58.622Z,16.80
2019-06-01T22:38:29.022Z,16.77
2019-06-01T22:40:58.449Z,17.43
2019-06-01T22:43:43.423Z,17.17
2019-06-01T22:45:59.195Z,15.93
2019-06-01T22:48:29.138Z,15.67
2019-06-01T22:51:00.230Z,16.80
2019-06-01T22:53:29.836Z,15.40
2019-06-01T22:55:59.528Z,18.80
2019-06-01T22:58:29.621Z,16.40
2019-06-01T23:00:59.470Z,16.77
2019-06-01T23:03:30.209Z,18.37
2019-06-01T23:06:00.135Z,18.57
2019-06-01T23:08:29.635Z,16.33
2019-06-01T23:11:00.454Z,16.90
2019-06-01T23:13:30.352Z,15.27
2019-06-01T23:16:00.186Z,15.73
2019-06-01T23:18:31.996Z,16.60
2019-06-01T23:21:01.613Z,15.70
2019-06-01T23:23:32.329Z,16.63
2019-06-01T23:26:02.801Z,15.50
2019-06-01T23:28:32.545Z,14.83
2019-06-01T23:31:02.302Z,14.37
2019-06-01T23:33:33.161Z,14.60
2019-06-01T23:36:02.730Z,15.17
2019-06-01T23:38:32.800Z,15.63
2019-06-01T23:41:02.807Z,15.10
2019-06-01T23:43:32.979Z,16.13
2019-06-01T23:46:03.148Z,16.30
2019-06-01T23:48:34.165Z,17.93
2019-06-01T23:51:05.367Z,16.80
2019-06-01T23:53:34.875Z,16.93
2019-06-01T23:56:04.675Z,16.37
2019-06-01T23:58:34.712Z,16.33
